Air Navigation Services of Czech Republic  
Last data update:  10.05.2021 04:56:25 UTC česká verze
   METEO Page displayed:  10.05.2021 04:57:57 UTC  
vysvětlivky
METAR EDDB 100450Z 13006KT CAVOK 15/07 Q1007 NOSIG=
METAR EDDC 100450Z 15014KT CAVOK 15/04 Q1007 TEMPO 16015G25KT=
METAR EDDE 100450Z 18009KT CAVOK 17/08 Q1005 NOSIG=
METAR EDDF 100450Z 22006KT 200V260 9999 VCSH FEW050TCU 16/11 Q1005 NOSIG=
METAR EDDM 100450Z VRB01KT CAVOK 11/08 Q1009 NOSIG=
METAR EDDN 100450Z 11009KT CAVOK 13/08 Q1007 NOSIG=
METAR EDDP 100450Z 17010KT CAVOK 16/09 Q1005 NOSIG=
METAR EDQM 100450Z 17007KT CAVOK 11/07 Q1008=
METAR EPBY 100430Z 13007KT 100V160 CAVOK 12/06 Q1012=
METAR EPGD 100430Z 16010KT CAVOK 12/06 Q1012=
METAR EPKK 100430Z VRB02KT CAVOK 10/06 Q1015=
METAR EPKT 100430Z 12007KT CAVOK 12/02 Q1015=
METAR EPLL 100430Z 11005KT 070V140 CAVOK 11/05 Q1014=
METAR EPPO 100430Z 14010KT CAVOK 13/05 Q1010=
METAR EPRZ 100430Z 09008KT CAVOK 10/04 Q1018=
METAR EPWA 100430Z 14009KT CAVOK 11/05 Q1017 NOSIG=
METAR EPWR 100430Z 13008KT CAVOK 10/05 Q1011=
METAR LHBP 100430Z 10006KT CAVOK 11/04 Q1019 NOSIG=
METAR LHSM 100415Z AUTO 15006KT CAVOK 10/05 Q1016=
METAR LKBC 100430Z AUTO 07005KT CAVOK 10/05 Q1010=
METAR LKCV 100430Z 14009KT CAVOK 13/02 Q1010 NOSIG RMK BLU BLU=
METAR LKKB 100430Z 07006KT CAVOK 11/04 Q1010 NOSIG RMK BLU BLU=
METAR LKKU NIL
METAR LKKV 100400Z 04003KT CAVOK 09/04 Q1009 RMK REG QNH 1007=
METAR LKLN 100500Z AUTO VRB01KT CAVOK 13/09 Q1009=
METAR LKMT 100430Z 19005KT 160V220 CAVOK 14/03 Q1014 NOSIG RMK REG QNH 1007=
METAR LKNA 100430Z 12012KT CAVOK 11/M00 Q1012 NOSIG RMK BLU BLU=
METAR LKPD 100500Z 09006KT CAVOK 15/02 Q1010 NOSIG RMK BLU BLU=
METAR LKPJ 100430Z AUTO 15005KT CAVOK 12/04 Q1013=
METAR LKPR 100430Z 11007KT CAVOK 10/06 Q1009 NOSIG RMK REG QNH 1007=
METAR LKTB 100430Z 11011KT CAVOK 14/01 Q1013 NOSIG RMK REG QNH 1007=
METAR LKVO NIL
METAR LOWI 100450Z 27007KT 240V320 9999 FEW060 15/06 Q1013 WS R26 NOSIG=
METAR LOWL 100450Z VRB01KT CAVOK 11/08 Q1010 NOSIG=
METAR LOWS 100450Z 18008KT CAVOK 16/04 Q1010 NOSIG=
METAR LOWW 100450Z 14017KT CAVOK 14/03 Q1012 NOSIG=
METAR LZIB 100430Z 06006KT CAVOK 12/04 Q1015 NOSIG=
METAR LZKZ 100430Z 34003KT CAVOK 09/04 Q1021 NOSIG=
METAR LZMC 100400Z 17012G22KT CAVOK 12/03 Q1014=
METAR LZPP 100430Z 12016KT CAVOK 15/02 Q1015=
METAR LZSL 100400Z 03002KT CAVOK 06/03 Q1020=
METAR LZTT 100430Z 20006KT 140V280 CAVOK 11/M01 Q1019 NOSIG=
METAR LZZI 100430Z VRB01KT CAVOK 06/04 Q1016=